Time;durP1;ratioP1;P1;durP2;ratioP2;P2;SDS_P1;SDS_P2;PMS_P1;PMS_P2;Temp;Humidity;BMP_temperature;BMP_pressure;BME280_temperature;BME280_humidity;BME280_pressure;Samples;Min_cycle;Max_cycle;Signal;HPM_P1;HPM_P2
2021/08/17 00:00:13;;;;;;;;;26.50;20.75;;;;;18.28;60.76;101921.53;5009737;28;45507;-70
2021/08/17 00:02:39;;;;;;;;;22.50;20.00;;;;;18.35;60.49;101943.34;5012924;28;45562;-70
2021/08/17 00:05:05;;;;;;;;;24.50;20.25;;;;;18.33;60.89;101939.91;5011701;28;45391;-70
2021/08/17 00:07:30;;;;;;;;;24.75;20.75;;;;;18.29;60.75;101933.88;5013250;28;46496;-70
2021/08/17 00:09:55;;;;;;;;;26.00;20.75;;;;;18.29;60.92;101935.69;5011854;28;45562;-70
2021/08/17 00:12:21;;;;;;;;;22.00;19.00;;;;;18.25;61.17;101932.34;5011363;28;45425;-71
2021/08/17 00:14:47;;;;;;;;;22.00;16.50;;;;;18.23;60.85;101936.91;5006443;28;45701;-71
2021/08/17 00:17:13;;;;;;;;;25.75;19.00;;;;;18.20;61.19;101937.91;5013315;28;45643;-71
2021/08/17 00:19:40;;;;;;;;;25.25;21.50;;;;;18.17;61.32;101934.59;5012634;28;45622;-71
2021/08/17 00:22:09;;;;;;;;;25.50;18.25;;;;;18.12;61.84;101929.53;5012147;28;45555;-71
2021/08/17 00:24:34;;;;;;;;;24.75;20.75;;;;;18.08;61.25;101937.75;5007976;28;45462;-70
2021/08/17 00:27:00;;;;;;;;;20.75;19.25;;;;;18.06;61.63;101934.31;5012548;28;45471;-70
2021/08/17 00:29:25;;;;;;;;;20.75;18.25;;;;;18.02;62.06;101940.75;5013483;28;45474;-70
2021/08/17 00:31:51;;;;;;;;;20.25;19.00;;;;;17.97;61.77;101933.88;5010777;28;45534;-71
2021/08/17 00:34:16;;;;;;;;;23.25;19.25;;;;;17.95;62.31;101933.09;5013121;28;48927;-70
2021/08/17 00:36:42;;;;;;;;;24.00;19.50;;;;;17.90;62.55;101927.16;5012918;28;46851;-70
2021/08/17 00:39:07;;;;;;;;;22.75;17.00;;;;;17.87;62.62;101932.66;5007734;28;45526;-70
2021/08/17 00:41:36;;;;;;;;;19.50;18.00;;;;;17.83;62.65;101933.75;5012385;28;45751;-70
2021/08/17 00:44:04;;;;;;;;;20.50;18.00;;;;;17.83;62.52;101939.09;5013795;28;47645;-70
2021/08/17 00:46:30;;;;;;;;;23.25;19.25;;;;;17.80;63.09;101933.06;5008132;28;46575;-71
2021/08/17 00:48:56;;;;;;;;;17.50;15.50;;;;;17.75;63.19;101922.72;5014843;28;45791;-70
2021/08/17 00:51:21;;;;;;;;;24.00;19.00;;;;;17.71;62.95;101923.78;5011126;28;47680;-70
2021/08/17 00:53:46;;;;;;;;;25.25;19.00;;;;;17.67;63.11;101919.56;5008983;28;45611;-70
2021/08/17 00:56:14;;;;;;;;;22.25;18.25;;;;;17.59;63.48;101916.44;5008337;28;45482;-69
2021/08/17 00:58:39;;;;;;;;;22.25;15.25;;;;;17.64;63.65;101925.88;5011523;28;45771;-70
2021/08/17 01:01:04;;;;;;;;;28.50;19.75;;;;;17.60;63.77;101918.19;5010219;28;45501;-70
2021/08/17 01:03:30;;;;;;;;;16.00;13.00;;;;;17.57;63.60;101923.66;5009200;28;45254;-69
2021/08/17 01:05:58;;;;;;;;;20.00;16.75;;;;;17.57;63.97;101927.16;5013945;28;47394;-70
2021/08/17 01:08:24;;;;;;;;;23.00;17.25;;;;;17.55;64.02;101928.19;5017248;28;45773;-70
2021/08/17 01:10:49;;;;;;;;;24.50;19.75;;;;;17.49;64.18;101913.44;5014618;28;47287;-70
2021/08/17 01:13:14;;;;;;;;;16.50;16.25;;;;;17.36;64.40;101899.94;5016270;28;45533;-70
2021/08/17 01:15:39;;;;;;;;;19.00;13.00;;;;;17.43;64.69;101917.25;5012775;28;46207;-70
2021/08/17 01:18:07;;;;;;;;;18.50;17.00;;;;;17.40;64.44;101917.44;5011656;28;45647;-70
2021/08/17 01:20:34;;;;;;;;;22.50;17.75;;;;;17.38;64.98;101915.78;5015954;28;45351;-70
2021/08/17 01:22:59;;;;;;;;;23.00;17.50;;;;;17.32;64.53;101913.44;5012720;28;45612;-70
2021/08/17 01:25:25;;;;;;;;;17.00;15.50;;;;;17.31;64.94;101927.69;5015597;28;45323;-70
2021/08/17 01:27:50;;;;;;;;;14.50;11.75;;;;;17.27;65.13;101926.13;5014326;28;45468;-70
2021/08/17 01:30:16;;;;;;;;;19.00;15.75;;;;;17.26;65.07;101935.88;5016000;28;45605;-70
2021/08/17 01:32:48;;;;;;;;;19.00;14.25;;;;;17.21;65.47;101921.97;5016239;28;45516;-70
2021/08/17 01:35:14;;;;;;;;;15.25;12.75;;;;;17.19;65.13;101930.03;5016000;28;45458;-70
2021/08/17 01:37:40;;;;;;;;;19.50;15.50;;;;;17.16;65.76;101929.31;5014543;28;45823;-71
2021/08/17 01:40:08;;;;;;;;;18.75;14.25;;;;;17.15;65.72;101932.94;5013860;28;45456;-70
2021/08/17 01:42:40;;;;;;;;;17.00;15.50;;;;;17.12;65.90;101923.34;5015999;28;45516;-70
2021/08/17 01:45:06;;;;;;;;;19.25;15.00;;;;;17.11;66.15;101926.91;5015933;28;45561;-70
2021/08/17 01:47:32;;;;;;;;;20.50;15.25;;;;;17.08;66.04;101926.22;5011420;28;45324;-70
2021/08/17 01:50:01;;;;;;;;;18.75;14.25;;;;;17.07;65.87;101937.75;5015474;28;45814;-71
2021/08/17 01:52:27;;;;;;;;;14.50;10.25;;;;;16.93;66.41;101912.78;5015185;28;45569;-70
2021/08/17 01:54:53;;;;;;;;;14.00;12.75;;;;;16.99;66.09;101929.34;5011481;28;46263;-70
2021/08/17 01:57:18;;;;;;;;;15.75;14.25;;;;;16.93;66.94;101928.72;5013264;28;46106;-70
2021/08/17 01:59:43;;;;;;;;;23.25;18.75;;;;;16.92;66.59;101923.50;5009706;28;45493;-70
2021/08/17 02:02:09;;;;;;;;;22.75;15.75;;;;;16.90;66.41;101923.53;5013259;28;49418;-70
2021/08/17 02:04:36;;;;;;;;;16.50;12.50;;;;;16.88;66.86;101922.78;5014008;28;46383;-70
2021/08/17 02:07:02;;;;;;;;;15.00;13.75;;;;;16.87;66.81;101914.91;5015116;28;45810;-70
2021/08/17 02:09:27;;;;;;;;;14.00;13.00;;;;;16.83;66.88;101916.84;5015034;28;45904;-70
2021/08/17 02:11:52;;;;;;;;;25.50;14.75;;;;;16.81;66.85;101912.53;5011239;28;45355;-70
2021/08/17 02:14:18;;;;;;;;;17.75;12.75;;;;;16.77;66.93;101911.84;5010422;28;57942;-70
2021/08/17 02:16:43;;;;;;;;;15.75;13.50;;;;;16.73;67.58;101915.56;5013502;28;45544;-70
2021/08/17 02:19:08;;;;;;;;;14.25;14.25;;;;;16.72;67.43;101913.88;5013802;28;45382;-70
2021/08/17 02:21:34;;;;;;;;;21.50;15.00;;;;;16.72;67.42;101913.00;5015307;28;45767;-70
2021/08/17 02:23:59;;;;;;;;;19.50;15.25;;;;;16.68;67.66;101910.47;5014918;28;45436;-70
2021/08/17 02:26:24;;;;;;;;;19.00;12.50;;;;;16.66;67.61;101911.50;5015112;28;45352;-70
2021/08/17 02:28:50;;;;;;;;;16.75;14.50;;;;;16.65;68.18;101912.41;5012210;28;45466;-70
2021/08/17 02:31:15;;;;;;;;;18.25;15.25;;;;;16.63;67.92;101915.13;5014862;28;51516;-69
2021/08/17 02:33:40;;;;;;;;;16.00;14.50;;;;;16.64;68.31;101911.53;5012075;28;46854;-69
2021/08/17 02:36:05;;;;;;;;;17.75;13.50;;;;;16.61;68.00;101909.06;5013841;28;45485;-69
2021/08/17 02:38:31;;;;;;;;;16.00;14.25;;;;;16.61;68.59;101910.84;5015018;28;45432;-69
2021/08/17 02:40:57;;;;;;;;;23.50;14.00;;;;;16.56;68.06;101904.91;5012587;28;45804;-68
2021/08/17 02:43:25;;;;;;;;;17.75;14.25;;;;;16.58;68.46;101906.53;5014425;28;46603;-69
2021/08/17 02:45:52;;;;;;;;;16.75;12.25;;;;;16.56;68.43;101908.44;5011109;28;45734;-68
2021/08/17 02:48:17;;;;;;;;;16.00;13.75;;;;;16.56;68.16;101911.09;5015464;28;45365;-69
2021/08/17 02:50:43;;;;;;;;;19.25;12.50;;;;;16.57;68.33;101919.91;5013377;28;45696;-69
2021/08/17 02:53:08;;;;;;;;;15.75;13.50;;;;;16.49;68.72;101906.13;5011310;28;46547;-69
2021/08/17 02:55:34;;;;;;;;;20.75;14.00;;;;;16.53;68.62;101916.53;5014764;28;45492;-68
2021/08/17 02:58:08;;;;;;;;;15.50;13.50;;;;;16.52;68.49;101917.47;5014649;28;45500;-69
2021/08/17 03:00:35;;;;;;;;;18.50;14.25;;;;;16.49;68.42;101924.72;5009309;28;45400;-69
2021/08/17 03:03:00;;;;;;;;;18.00;14.50;;;;;16.43;68.77;101905.50;5015196;28;46136;-69
2021/08/17 03:05:26;;;;;;;;;16.25;14.50;;;;;16.42;68.94;101906.44;5014127;28;45497;-69
2021/08/17 03:08:00;;;;;;;;;17.25;15.25;;;;;16.43;69.33;101916.09;5014073;28;45460;-69
2021/08/17 03:10:25;;;;;;;;;19.75;13.75;;;;;16.37;68.99;101903.16;5014038;28;45417;-69
2021/08/17 03:12:50;;;;;;;;;19.75;15.50;;;;;16.37;69.39;101912.91;5014935;28;45477;-69
2021/08/17 03:15:16;;;;;;;;;15.25;15.25;;;;;16.37;69.22;101908.44;5013401;28;45788;-69
2021/08/17 03:17:41;;;;;;;;;15.00;14.00;;;;;16.35;69.12;101902.38;5012839;28;45554;-69
2021/08/17 03:20:09;;;;;;;;;16.50;12.25;;;;;16.34;69.14;101905.97;5010192;28;45540;-69
2021/08/17 03:22:35;;;;;;;;;18.00;15.75;;;;;16.29;69.81;101901.81;5013580;28;45395;-69
2021/08/17 03:25:00;;;;;;;;;19.25;15.25;;;;;16.28;69.30;101900.94;5011109;28;45865;-69
2021/08/17 03:27:26;;;;;;;;;14.00;13.00;;;;;16.25;69.75;101898.44;5011915;28;55124;-69
2021/08/17 03:29:51;;;;;;;;;21.25;14.25;;;;;16.24;69.62;101899.38;5012428;28;45666;-69
2021/08/17 03:32:20;;;;;;;;;17.50;13.75;;;;;16.23;69.80;101902.09;5009232;28;46625;-70
2021/08/17 03:34:45;;;;;;;;;18.75;13.50;;;;;16.22;69.89;101898.59;5012839;28;45960;-68
2021/08/17 03:37:11;;;;;;;;;18.00;17.25;;;;;16.23;69.93;101904.75;5014246;28;45481;-68
2021/08/17 03:39:36;;;;;;;;;19.25;16.00;;;;;16.22;69.84;101908.34;5012228;28;45635;-69
2021/08/17 03:42:01;;;;;;;;;17.00;16.25;;;;;16.20;69.99;101902.25;5012540;28;55190;-68
2021/08/17 03:44:27;;;;;;;;;18.75;14.50;;;;;16.18;69.76;101899.66;5009631;28;45545;-68
2021/08/17 03:46:52;;;;;;;;;15.00;12.50;;;;;16.11;70.33;101884.97;5013942;28;45438;-69
2021/08/17 03:49:17;;;;;;;;;23.00;13.75;;;;;16.17;70.61;101900.59;5013716;28;45493;-70
2021/08/17 03:51:43;;;;;;;;;14.50;13.75;;;;;16.16;70.36;101898.88;5013358;28;46668;-69
2021/08/17 03:54:08;;;;;;;;;26.50;17.25;;;;;16.16;70.44;101896.22;5013420;28;45416;-69
2021/08/17 03:56:33;;;;;;;;;17.75;14.00;;;;;16.12;70.48;101900.81;5013350;28;45304;-69
2021/08/17 03:58:58;;;;;;;;;15.25;12.00;;;;;16.10;70.67;101894.72;5013758;28;45438;-69
2021/08/17 04:01:24;;;;;;;;;23.75;16.50;;;;;16.08;70.43;101893.09;5013367;28;53973;-69
2021/08/17 04:03:49;;;;;;;;;17.00;14.50;;;;;16.04;70.46;101896.81;5009386;28;58157;-69
2021/08/17 04:06:14;;;;;;;;;16.25;13.00;;;;;16.03;70.38;101889.81;5013371;28;46589;-69
2021/08/17 04:08:40;;;;;;;;;18.00;15.00;;;;;16.04;70.69;101905.63;5012657;28;51499;-70
2021/08/17 04:11:05;;;;;;;;;12.25;12.25;;;;;16.05;70.16;101901.19;5013171;28;58706;-69
2021/08/17 04:13:30;;;;;;;;;17.50;16.00;;;;;16.02;70.33;101901.31;5012445;28;49941;-70
2021/08/17 04:15:56;;;;;;;;;14.50;12.75;;;;;16.00;70.49;101898.75;5015155;28;45256;-69
2021/08/17 04:18:21;;;;;;;;;18.25;14.75;;;;;16.01;70.59;101894.31;5011152;28;45229;-69
2021/08/17 04:20:46;;;;;;;;;13.25;11.00;;;;;16.01;70.74;101899.59;5013135;28;51797;-69
2021/08/17 04:23:12;;;;;;;;;13.25;11.75;;;;;15.99;70.62;101896.19;5014103;28;45489;-69
2021/08/17 04:25:37;;;;;;;;;20.00;14.75;;;;;15.98;70.66;101895.31;5012256;28;45510;-70
2021/08/17 04:28:03;;;;;;;;;19.00;13.75;;;;;15.99;70.33;101899.69;5013484;28;45533;-69
2021/08/17 04:30:28;;;;;;;;;17.50;12.50;;;;;15.97;70.75;101893.56;5013298;28;47070;-70
2021/08/17 04:32:54;;;;;;;;;13.75;11.25;;;;;15.97;70.71;101887.41;5009040;28;45395;-69
2021/08/17 04:35:19;;;;;;;;;18.50;15.25;;;;;15.95;70.73;101884.00;5013058;28;45600;-69
2021/08/17 04:37:46;;;;;;;;;18.50;13.25;;;;;15.95;71.13;101890.16;5013060;28;45514;-70
2021/08/17 04:40:12;;;;;;;;;20.25;17.00;;;;;15.96;70.98;101885.69;5015204;28;47754;-70
2021/08/17 04:42:38;;;;;;;;;15.25;12.75;;;;;15.96;70.69;101886.56;5016911;28;45525;-69
2021/08/17 04:45:04;;;;;;;;;17.00;13.00;;;;;15.94;70.83;101884.94;5016853;28;45453;-69
2021/08/17 04:47:30;;;;;;;;;15.50;13.00;;;;;15.95;71.38;101891.94;5016436;28;45604;-69
2021/08/17 04:49:55;;;;;;;;;16.75;11.50;;;;;15.94;71.22;101882.28;5016295;28;49017;-70
2021/08/17 04:52:20;;;;;;;;;15.75;14.50;;;;;15.94;71.00;101892.88;5016518;28;45647;-69
2021/08/17 04:54:45;;;;;;;;;16.00;12.00;;;;;15.94;70.93;101896.38;5013552;28;45423;-70
2021/08/17 04:57:13;;;;;;;;;14.75;12.25;;;;;15.94;70.91;101892.88;5016534;28;45430;-69
2021/08/17 04:59:38;;;;;;;;;15.50;13.25;;;;;15.95;71.00;101887.50;5015962;28;46575;-69
2021/08/17 05:02:04;;;;;;;;;14.50;13.50;;;;;15.98;71.35;101892.66;5015674;28;45531;-69
2021/08/17 05:04:29;;;;;;;;;20.25;14.50;;;;;16.02;70.94;101896.00;5016130;28;46312;-70
2021/08/17 05:06:54;;;;;;;;;17.50;13.75;;;;;16.05;71.23;101893.22;5017798;28;45515;-69
2021/08/17 05:09:20;;;;;;;;;14.25;10.50;;;;;16.06;70.90;101895.81;5015567;28;55709;-69
2021/08/17 05:11:45;;;;;;;;;14.00;12.25;;;;;16.13;71.21;101904.31;5016177;28;45438;-70
2021/08/17 05:14:10;;;;;;;;;14.50;11.50;;;;;16.11;71.27;101888.50;5012047;28;45668;-70
2021/08/17 05:16:36;;;;;;;;;15.00;10.75;;;;;16.18;71.33;101903.19;5014138;28;45686;-69
2021/08/17 05:19:01;;;;;;;;;15.00;11.50;;;;;16.25;70.88;101902.91;5016897;28;48617;-70
2021/08/17 05:21:26;;;;;;;;;19.50;14.50;;;;;16.29;70.92;101907.97;5015163;28;45409;-69
2021/08/17 05:23:52;;;;;;;;;13.50;11.25;;;;;16.33;70.88;101920.13;5016340;28;45505;-69
2021/08/17 05:26:17;;;;;;;;;18.75;13.75;;;;;16.37;70.88;101913.75;5012097;28;45552;-70
2021/08/17 05:28:43;;;;;;;;;17.25;12.50;;;;;16.41;71.04;101919.78;5015514;28;46182;-69
2021/08/17 05:31:08;;;;;;;;;11.50;9.75;;;;;16.47;70.60;101918.63;5015208;28;45475;-69
2021/08/17 05:33:33;;;;;;;;;13.25;11.75;;;;;16.50;70.57;101913.19;5016949;28;45395;-69
2021/08/17 05:35:59;;;;;;;;;19.50;14.75;;;;;16.51;70.70;101915.75;5015519;28;45340;-69
2021/08/17 05:38:24;;;;;;;;;15.25;11.25;;;;;16.55;70.68;101916.44;5015520;28;46285;-69
2021/08/17 05:40:49;;;;;;;;;14.25;11.50;;;;;16.56;70.98;101918.19;5013776;28;59367;-69
2021/08/17 05:43:15;;;;;;;;;13.75;12.00;;;;;16.59;70.68;101915.38;5016965;28;45360;-69
2021/08/17 05:45:40;;;;;;;;;19.75;13.75;;;;;16.69;70.57;101928.09;5015937;28;45808;-69
2021/08/17 05:48:05;;;;;;;;;13.00;12.25;;;;;16.78;70.62;101933.94;5014013;28;46055;-70
2021/08/17 05:50:31;;;;;;;;;21.00;15.00;;;;;16.85;70.07;101930.88;5015349;28;47893;-69
2021/08/17 05:52:56;;;;;;;;;12.50;11.75;;;;;16.92;70.07;101921.69;5014474;28;45483;-69
2021/08/17 05:55:22;;;;;;;;;16.75;14.50;;;;;17.00;69.93;101931.91;5014421;28;55289;-70
2021/08/17 05:57:59;;;;;;;;;17.75;13.75;;;;;17.07;69.83;101927.13;5016311;28;45977;-70
2021/08/17 06:00:25;;;;;;;;;14.00;12.25;;;;;17.15;70.22;101930.28;5011116;28;45542;-70
2021/08/17 06:02:50;;;;;;;;;18.50;14.75;;;;;17.21;69.56;101928.16;5011371;28;45710;-69
2021/08/17 06:05:16;;;;;;;;;18.25;12.00;;;;;17.29;69.90;101935.75;5014954;28;45496;-70
2021/08/17 06:07:48;;;;;;;;;15.00;13.00;;;;;17.35;69.42;101938.06;5016038;28;45411;-69
2021/08/17 06:10:15;;;;;;;;;13.75;10.50;;;;;17.45;69.52;101935.78;5013471;28;45395;-70
2021/08/17 06:12:42;;;;;;;;;15.25;11.50;;;;;17.52;69.17;101934.53;5016164;28;45573;-69
2021/08/17 06:15:08;;;;;;;;;15.50;11.50;;;;;17.60;69.18;101936.78;5010998;28;45513;-70
2021/08/17 06:17:33;;;;;;;;;16.25;11.75;;;;;17.70;69.21;101938.88;5009785;28;48290;-69
2021/08/17 06:19:59;;;;;;;;;12.00;11.50;;;;;17.79;68.85;101942.84;5015257;28;45407;-69
2021/08/17 06:22:24;;;;;;;;;15.50;12.00;;;;;17.89;68.76;101948.53;5015937;28;45403;-69
2021/08/17 06:24:49;;;;;;;;;21.00;16.50;;;;;17.98;68.29;101940.91;5012363;28;58983;-70
2021/08/17 06:27:16;;;;;;;;;16.00;11.00;;;;;18.13;67.72;101938.34;5014610;28;46478;-70
2021/08/17 06:29:42;;;;;;;;;19.50;14.75;;;;;18.23;67.83;101942.22;5008633;28;45415;-70
2021/08/17 06:32:07;;;;;;;;;19.00;15.00;;;;;18.32;67.56;101939.03;5014631;28;45499;-70
2021/08/17 06:34:32;;;;;;;;;15.75;13.75;;;;;18.43;67.23;101938.44;5015538;28;45818;-69
2021/08/17 06:36:58;;;;;;;;;20.25;16.00;;;;;18.55;67.26;101939.53;5014494;28;46038;-70
2021/08/17 06:39:23;;;;;;;;;16.50;13.25;;;;;18.60;66.84;101937.47;5009775;28;45710;-70
2021/08/17 06:41:48;;;;;;;;;14.50;12.50;;;;;18.70;66.51;101938.69;5012211;28;45387;-70
2021/08/17 06:44:15;;;;;;;;;14.00;13.75;;;;;18.81;66.30;101941.59;5010636;28;45610;-70
2021/08/17 06:46:40;;;;;;;;;13.50;10.75;;;;;18.85;66.13;101926.28;5011908;28;46493;-70
2021/08/17 06:49:05;;;;;;;;;14.00;12.25;;;;;18.97;66.04;101942.41;5012231;28;45745;-70
2021/08/17 06:51:31;;;;;;;;;17.00;15.50;;;;;19.04;65.93;101943.75;5013284;28;55527;-70
2021/08/17 06:53:56;;;;;;;;;17.50;13.50;;;;;19.22;65.96;101947.13;5012632;28;45438;-70
2021/08/17 06:56:21;;;;;;;;;23.00;19.25;;;;;19.47;65.42;101938.50;5014058;28;46067;-70
2021/08/17 06:58:47;;;;;;;;;18.00;14.25;;;;;19.74;64.46;101940.47;5014958;28;45519;-70
2021/08/17 07:01:12;;;;;;;;;18.75;16.00;;;;;19.93;64.62;101935.66;5014689;28;45521;-70
2021/08/17 07:03:37;;;;;;;;;17.00;15.00;;;;;20.16;63.72;101936.03;5010574;28;45384;-70
2021/08/17 07:06:03;;;;;;;;;16.75;13.75;;;;;20.32;63.53;101942.94;5014214;28;57421;-70
2021/08/17 07:08:28;;;;;;;;;17.50;14.75;;;;;20.50;63.19;101940.06;5030141;28;45501;-70
2021/08/17 07:10:53;;;;;;;;;19.50;14.50;;;;;20.67;62.80;101936.25;5012536;28;46702;-70
2021/08/17 07:13:19;;;;;;;;;15.50;13.00;;;;;20.76;62.80;101931.16;5014199;28;45538;-70
2021/08/17 07:15:45;;;;;;;;;17.25;14.25;;;;;20.79;61.83;101928.31;5011067;28;46088;-71
2021/08/17 07:18:10;;;;;;;;;18.75;14.00;;;;;20.98;62.10;101940.41;5013173;28;45426;-70
2021/08/17 07:20:37;;;;;;;;;16.25;12.25;;;;;21.09;61.89;101936.06;5013000;28;45601;-70
2021/08/17 07:23:04;;;;;;;;;14.50;14.25;;;;;21.17;61.40;101934.69;5014186;28;45658;-71
2021/08/17 07:25:29;;;;;;;;;17.25;14.00;;;;;21.21;61.27;101939.72;5013205;28;45533;-70
2021/08/17 07:27:54;;;;;;;;;17.75;14.75;;;;;21.27;60.88;101938.44;5013262;28;45820;-70
2021/08/17 07:30:20;;;;;;;;;14.50;11.75;;;;;21.19;61.08;101928.25;5012188;28;45597;-70
2021/08/17 07:32:46;;;;;;;;;16.50;13.00;;;;;21.29;60.29;101945.38;5010929;28;45757;-71
2021/08/17 07:35:14;;;;;;;;;16.75;12.25;;;;;21.37;60.39;101950.25;5006438;28;45578;-71
2021/08/17 07:37:44;;;;;;;;;18.00;11.75;;;;;21.43;60.08;101944.47;5012700;28;45659;-70
2021/08/17 07:40:10;;;;;;;;;14.25;12.25;;;;;21.50;59.83;101959.09;5012034;28;45380;-71
2021/08/17 07:42:36;;;;;;;;;15.00;14.50;;;;;21.58;59.90;101946.06;5012753;28;45645;-71
2021/08/17 07:45:03;;;;;;;;;14.25;13.00;;;;;21.72;59.69;101945.09;5008789;28;46097;-70
2021/08/17 07:47:29;;;;;;;;;14.25;12.00;;;;;21.82;59.06;101947.94;5008270;28;45267;-71
2021/08/17 07:49:55;;;;;;;;;210.00;186.00;;;;;21.89;59.33;101943.91;5011410;28;45535;-70
2021/08/17 07:52:20;;;;;;;;;25.50;20.50;;;;;21.98;59.13;101947.72;5012140;28;45558;-71
2021/08/17 07:54:46;;;;;;;;;19.75;14.75;;;;;22.10;58.43;101946.84;5012071;28;46452;-71
2021/08/17 07:57:11;;;;;;;;;16.25;13.50;;;;;22.19;58.63;101953.41;5008541;28;45483;-70
2021/08/17 07:59:36;;;;;;;;;15.25;10.50;;;;;22.32;58.45;101947.03;5005250;28;51583;-71
2021/08/17 08:02:02;;;;;;;;;14.50;11.50;;;;;22.47;57.68;101941.50;5005730;28;45625;-70
2021/08/17 08:04:28;;;;;;;;;14.75;11.50;;;;;22.60;58.31;101942.28;5004201;28;47173;-70
2021/08/17 08:06:53;;;;;;;;;13.00;10.75;;;;;22.77;57.47;101941.91;5008928;28;45437;-71
2021/08/17 08:09:18;;;;;;;;;12.50;10.75;;;;;22.90;57.12;101942.69;5009326;28;45713;-71
2021/08/17 08:11:44;;;;;;;;;13.00;11.00;;;;;22.97;56.19;101940.44;5011874;28;45760;-70
2021/08/17 08:14:09;;;;;;;;;14.75;10.75;;;;;22.81;55.61;101932.66;5009294;28;45493;-71
2021/08/17 08:16:34;;;;;;;;;14.50;7.50;;;;;22.94;55.82;101951.38;5013056;28;45440;-71
2021/08/17 08:19:01;;;;;;;;;12.50;11.00;;;;;23.11;56.12;101947.41;5012878;28;45508;-71
2021/08/17 08:21:26;;;;;;;;;10.50;9.00;;;;;23.39;56.47;101949.69;5013810;28;45867;-71
2021/08/17 08:23:52;;;;;;;;;4.75;3.25;;;;;23.72;56.09;101947.16;5010996;28;46579;-71
2021/08/17 08:26:17;;;;;;;;;11.00;8.00;;;;;24.01;55.58;101943.00;5013104;28;50939;-71
2021/08/17 08:28:42;;;;;;;;;12.50;9.25;;;;;24.25;54.62;101942.84;5011622;28;45531;-70
2021/08/17 08:31:08;;;;;;;;;12.25;10.50;;;;;24.35;53.67;101953.69;5013624;28;45530;-70
2021/08/17 08:33:33;;;;;;;;;12.75;10.75;;;;;24.28;52.70;101961.41;5012886;28;46098;-71
2021/08/17 08:35:58;;;;;;;;;10.00;9.00;;;;;24.31;52.81;101952.22;5011846;28;45510;-71
2021/08/17 08:38:24;;;;;;;;;135.25;115.00;;;;;24.42;53.16;101946.84;5011495;28;45496;-71
2021/08/17 08:40:51;;;;;;;;;10.25;9.00;;;;;24.54;53.54;101950.38;5013193;28;45379;-71
2021/08/17 08:43:19;;;;;;;;;11.50;9.25;;;;;24.50;53.13;101948.94;5008949;28;46408;-71
2021/08/17 08:45:47;;;;;;;;;10.75;8.25;;;;;24.42;52.68;101953.06;5012380;28;45540;-71
2021/08/17 08:48:17;;;;;;;;;11.75;11.00;;;;;24.35;53.24;101961.75;5013356;28;45472;-71
2021/08/17 08:50:44;;;;;;;;;12.50;7.00;;;;;24.18;53.57;101965.81;5011760;28;45585;-71
2021/08/17 08:53:10;;;;;;;;;12.75;7.50;;;;;24.07;53.37;101958.63;5011704;28;46532;-71
2021/08/17 08:55:36;;;;;;;;;7.50;6.25;;;;;24.06;53.92;101959.59;5012008;28;45498;-71
2021/08/17 08:58:01;;;;;;;;;11.25;7.25;;;;;24.20;53.43;101966.53;5010536;28;45447;-71
2021/08/17 09:00:27;;;;;;;;;11.00;9.75;;;;;24.28;53.66;101963.25;5013590;28;45351;-71
2021/08/17 09:02:52;;;;;;;;;11.00;8.75;;;;;24.31;53.67;101960.28;5013816;28;45602;-71
2021/08/17 09:05:21;;;;;;;;;13.25;9.00;;;;;24.31;53.24;101961.13;5013111;28;47832;-71
2021/08/17 09:07:47;;;;;;;;;7.50;7.50;;;;;24.38;53.61;101961.50;5007245;28;46655;-71
2021/08/17 09:10:14;;;;;;;;;9.00;8.50;;;;;24.36;53.05;101961.66;5016087;28;45541;-71
2021/08/17 09:12:42;;;;;;;;;13.25;8.50;;;;;24.38;52.73;101953.44;5009512;28;46293;-71
2021/08/17 09:15:11;;;;;;;;;9.75;6.75;;;;;24.40;52.77;101959.56;5009454;28;45524;-73
2021/08/17 09:17:37;;;;;;;;;9.25;8.00;;;;;24.59;52.90;101946.34;5008488;28;45473;-71
2021/08/17 09:20:04;;;;;;;;;7.75;6.75;;;;;25.07;52.11;101953.97;5010396;28;45634;-71
2021/08/17 09:22:31;;;;;;;;;7.50;7.50;;;;;25.20;52.35;101945.69;5008493;28;45858;-71
2021/08/17 09:25:00;;;;;;;;;6.50;4.50;;;;;25.31;51.68;101950.16;5010122;28;45754;-71
2021/08/17 09:27:32;;;;;;;;;12.50;9.25;;;;;25.33;50.07;101946.34;5011097;28;45625;-71
2021/08/17 09:30:06;;;;;;;;;7.50;6.75;;;;;25.15;49.27;101946.06;5012542;28;45933;-71
2021/08/17 09:32:32;;;;;;;;;9.25;6.50;;;;;24.83;49.49;101942.56;5011948;28;47205;-71
2021/08/17 09:34:59;;;;;;;;;7.50;6.50;;;;;24.57;51.00;101944.75;5012766;28;45558;-71
2021/08/17 09:37:27;;;;;;;;;9.00;8.00;;;;;24.34;51.45;101942.09;5010244;28;46058;-71
2021/08/17 09:39:54;;;;;;;;;12.75;7.00;;;;;24.07;51.24;101939.84;5012354;28;45484;-71
2021/08/17 09:42:31;;;;;;;;;29.25;26.75;;;;;23.71;51.61;101945.47;5010803;28;45500;-71
2021/08/17 09:45:05;;;;;;;;;6.75;6.00;;;;;23.27;52.24;101930.97;5010063;28;45511;-72
2021/08/17 09:47:35;;;;;;;;;6.50;6.50;;;;;23.01;52.62;101947.25;5011239;28;45425;-70
2021/08/17 09:50:17;;;;;;;;;10.25;7.00;;;;;22.82;53.02;101939.72;5013481;28;45584;-70
2021/08/17 09:52:43;;;;;;;;;10.75;7.50;;;;;22.75;53.20;101937.63;5009934;28;46742;-71
2021/08/17 09:55:17;;;;;;;;;11.00;6.75;;;;;22.84;53.81;101936.94;5011456;28;45714;-69
2021/08/17 09:57:43;;;;;;;;;6.75;6.00;;;;;22.77;53.39;101941.91;5011987;28;45478;-69
2021/08/17 10:00:14;;;;;;;;;7.50;6.25;;;;;22.63;53.67;101934.88;5012446;28;45505;-68
2021/08/17 10:02:44;;;;;;;;;9.50;7.50;;;;;22.52;53.75;101940.19;5011784;28;47157;-69
2021/08/17 10:05:11;;;;;;;;;7.00;6.00;;;;;22.35;54.30;101935.25;5013197;28;45320;-70
2021/08/17 10:07:39;;;;;;;;;8.50;6.50;;;;;22.22;53.84;101934.41;5012079;28;45995;-71
2021/08/17 10:10:06;;;;;;;;;14.25;8.25;;;;;22.09;54.24;101935.28;5014407;28;45571;-70
2021/08/17 10:12:32;;;;;;;;;10.25;9.25;;;;;21.96;54.17;101929.09;5013921;28;45527;-70
2021/08/17 10:14:58;;;;;;;;;8.50;6.50;;;;;21.88;54.53;101937.69;5014706;28;45343;-69
2021/08/17 10:17:23;;;;;;;;;7.25;7.25;;;;;21.79;54.74;101938.34;5014078;28;45648;-69
2021/08/17 10:19:50;;;;;;;;;7.75;6.75;;;;;21.71;54.76;101931.81;5014590;28;45378;-70
2021/08/17 10:22:15;;;;;;;;;7.75;6.50;;;;;21.64;54.69;101936.75;5014590;28;46482;-70
2021/08/17 10:24:43;;;;;;;;;11.00;8.00;;;;;21.53;54.54;101931.31;5015650;28;45460;-70
2021/08/17 10:27:18;;;;;;;;;5.75;5.75;;;;;21.47;55.27;101940.63;5013554;28;45490;-70
2021/08/17 10:29:58;;;;;;;;;7.75;7.25;;;;;21.39;55.16;101937.59;5013720;28;45446;-69
2021/08/17 10:32:54;;;;;;;;;7.75;7.75;;;;;21.40;55.40;101939.31;5011413;28;46398;-69
2021/08/17 10:35:34;;;;;;;;;8.50;6.75;;;;;21.51;55.36;101920.72;5003975;28;45312;-69
2021/08/17 10:38:09;;;;;;;;;6.25;5.75;;;;;21.72;55.93;101922.84;5012462;28;45576;-69
2021/08/17 10:40:52;;;;;;;;;8.25;7.75;;;;;21.96;54.75;101921.06;5018589;28;45463;-69
2021/08/17 10:43:26;;;;;;;;;7.25;6.00;;;;;22.25;55.44;101918.13;5013839;28;47255;-69
2021/08/17 10:46:01;;;;;;;;;9.75;9.75;;;;;22.55;54.59;101909.63;5015900;28;45800;-69
2021/08/17 10:49:02;;;;;;;;;7.75;6.75;;;;;22.93;53.95;101909.47;5013013;28;45383;-69
2021/08/17 10:51:30;;;;;;;;;9.00;7.75;;;;;23.12;52.77;101908.88;5015120;28;45481;-69
2021/08/17 10:54:16;;;;;;;;;14.00;10.00;;;;;23.24;53.22;101899.06;5014213;28;46909;-69
2021/08/17 10:56:42;;;;;;;;;11.50;9.75;;;;;23.33;52.71;101892.94;4995604;28;45439;-68
2021/08/17 10:59:08;;;;;;;;;12.25;10.75;;;;;23.51;51.92;101891.50;5013430;28;45527;-67
2021/08/17 11:01:39;;;;;;;;;10.00;7.25;;;;;23.55;52.24;101897.50;5014081;28;45433;-68
2021/08/17 11:04:26;;;;;;;;;9.00;7.00;;;;;23.68;52.55;101900.91;5012120;28;46153;-67
2021/08/17 11:06:56;;;;;;;;;6.25;6.00;;;;;23.82;52.72;101900.69;5012030;28;45545;-69
2021/08/17 11:09:25;;;;;;;;;7.50;7.50;;;;;23.90;52.20;101894.69;5015017;28;47121;-70